Terminal Aerodrome Forecast
Issued by NWS Topeka, KS

Home | Current Version | Previous Version | Text Only | Print | Product List | Glossary Off
Versions: 1 2 3 4 5 6 7 8 9 10 11 12 13 14 15 16 17 18 19 20 21 22 23 24 25 26

000
FTUS43 KTOP 291700 CCA
TAFTOP
TAF COR
KTOP 291759Z 2918/3018 16010KT 6SM SHRA VCTS BKN010CB BKN100
      TEMPO 2918/2920 SCT010 BKN035CB BKN100
     FM292100 19006KT P6SM SCT035 BKN050
     FM300200 35009KT P6SM VCTS BKN035CB
     FM300500 35012G21KT P6SM OVC035
     FM300900 35009G20KT P6SM BKN015=

USA.gov is the U.S. government's official web portal to all federal, state and local government web resources and services.